createdAt,value
2023-04-15T00:00:57.739Z,100.00
2023-04-15T00:03:24.684Z,100.00
2023-04-15T00:05:53.232Z,100.00
2023-04-15T00:08:20.023Z,100.00
2023-04-15T00:10:46.883Z,100.00
2023-04-15T00:13:13.820Z,100.00
2023-04-15T00:15:41.099Z,100.00
2023-04-15T00:18:07.959Z,100.00
2023-04-15T00:20:34.953Z,100.00
2023-04-15T00:23:03.419Z,100.00
2023-04-15T00:25:30.216Z,100.00
2023-04-15T00:27:57.024Z,100.00
2023-04-15T00:30:23.791Z,100.00
2023-04-15T00:32:50.753Z,100.00
2023-04-15T00:35:17.742Z,100.00
2023-04-15T00:37:46.226Z,100.00
2023-04-15T00:40:18.542Z,100.00
2023-04-15T00:42:45.284Z,100.00
2023-04-15T00:45:12.124Z,100.00
2023-04-15T00:47:40.999Z,100.00
2023-04-15T00:50:09.477Z,100.00
2023-04-15T00:52:36.639Z,100.00
2023-04-15T00:55:03.927Z,100.00
2023-04-15T00:57:32.958Z,100.00
2023-04-15T01:00:00.847Z,100.00
2023-04-15T01:02:27.677Z,100.00
2023-04-15T01:04:54.822Z,100.00
2023-04-15T01:07:21.589Z,100.00
2023-04-15T01:09:48.503Z,100.00
2023-04-15T01:12:16.951Z,100.00
2023-04-15T01:14:45.211Z,100.00
2023-04-15T01:17:12.022Z,100.00
2023-04-15T01:19:38.911Z,100.00
2023-04-15T01:22:05.727Z,100.00
2023-04-15T01:24:32.874Z,98.77
2023-04-15T01:27:01.412Z,97.11
2023-04-15T01:29:28.316Z,98.14
2023-04-15T01:31:56.381Z,93.56
2023-04-15T01:34:23.610Z,94.50
2023-04-15T01:36:50.537Z,94.51
2023-04-15T01:39:17.309Z,96.87
2023-04-15T01:41:44.172Z,94.51
2023-04-15T01:44:12.373Z,97.11
2023-04-15T01:46:39.191Z,100.00
2023-04-15T01:49:06.024Z,98.59
2023-04-15T01:51:32.735Z,100.00
2023-04-15T01:53:59.456Z,100.00
2023-04-15T01:56:26.381Z,100.00
2023-04-15T01:58:53.221Z,100.00
2023-04-15T02:01:21.440Z,99.14
2023-04-15T02:03:48.652Z,100.00
2023-04-15T02:06:15.555Z,100.00
2023-04-15T02:08:42.351Z,100.00
2023-04-15T02:11:09.132Z,100.00
2023-04-15T02:13:36.141Z,100.00
2023-04-15T02:16:03.576Z,100.00
2023-04-15T02:18:31.741Z,100.00
2023-04-15T02:20:59.011Z,100.00
2023-04-15T02:23:25.983Z,100.00
2023-04-15T02:25:53.872Z,100.00
2023-04-15T02:28:21.143Z,100.00
2023-04-15T02:30:48.495Z,100.00
2023-04-15T02:33:15.300Z,100.00
2023-04-15T02:35:45.914Z,100.00
2023-04-15T02:38:12.860Z,100.00
2023-04-15T02:40:39.721Z,100.00
2023-04-15T02:43:06.560Z,100.00
2023-04-15T02:45:33.382Z,100.00
2023-04-15T02:48:00.146Z,100.00
2023-04-15T02:50:27.025Z,100.00
2023-04-15T02:52:55.243Z,100.00
2023-04-15T02:55:22.276Z,100.00
2023-04-15T02:57:49.084Z,100.00
2023-04-15T03:00:16.047Z,100.00
2023-04-15T03:02:43.197Z,100.00
2023-04-15T03:05:12.761Z,100.00
2023-04-15T03:07:39.657Z,100.00
2023-04-15T03:10:09.286Z,100.00
2023-04-15T03:12:36.081Z,100.00
2023-04-15T03:15:03.018Z,100.00
2023-04-15T03:17:29.850Z,100.00
2023-04-15T03:19:56.711Z,100.00
2023-04-15T03:22:23.553Z,100.00
2023-04-15T03:24:50.343Z,100.00
2023-04-15T03:27:18.521Z,100.00
2023-04-15T03:29:45.266Z,100.00
2023-04-15T03:32:12.013Z,100.00
2023-04-15T03:34:38.720Z,100.00
2023-04-15T03:37:05.670Z,100.00
2023-04-15T03:39:32.517Z,100.00
2023-04-15T03:41:59.296Z,100.00
2023-04-15T03:44:28.152Z,100.00
2023-04-15T03:46:55.017Z,100.00
2023-04-15T03:49:21.860Z,100.00
2023-04-15T03:51:48.620Z,100.00
2023-04-15T03:54:15.461Z,100.00
2023-04-15T03:56:42.332Z,100.00
2023-04-15T03:59:09.396Z,100.00
2023-04-15T04:01:37.559Z,100.00
2023-04-15T04:04:04.675Z,100.00
2023-04-15T04:06:31.655Z,100.00
2023-04-15T04:08:58.533Z,100.00
2023-04-15T04:11:25.330Z,100.00
2023-04-15T04:13:53.300Z,100.00
2023-04-15T04:16:20.452Z,100.00
2023-04-15T04:18:48.678Z,100.00
2023-04-15T04:21:15.544Z,100.00
2023-04-15T04:23:42.522Z,100.00
2023-04-15T04:26:09.250Z,100.00
2023-04-15T04:28:36.044Z,100.00
2023-04-15T04:31:02.867Z,100.00
2023-04-15T04:33:29.723Z,100.00
2023-04-15T04:35:57.858Z,100.00
2023-04-15T04:38:24.768Z,100.00
2023-04-15T04:40:51.665Z,100.00
2023-04-15T04:43:18.444Z,100.00
2023-04-15T04:45:45.454Z,100.00
2023-04-15T04:48:12.222Z,100.00
2023-04-15T04:50:39.083Z,100.00
2023-04-15T04:53:07.207Z,100.00
2023-04-15T04:55:33.975Z,100.00
2023-04-15T04:58:00.770Z,100.00
2023-04-15T05:00:28.017Z,100.00
2023-04-15T05:02:54.989Z,100.00
2023-04-15T05:05:21.964Z,100.00
2023-04-15T05:07:48.699Z,100.00
2023-04-15T05:10:17.035Z,100.00
2023-04-15T05:12:43.991Z,100.00
2023-04-15T05:15:11.325Z,100.00
2023-04-15T05:17:38.568Z,100.00
2023-04-15T05:20:06.942Z,100.00
2023-04-15T05:22:34.118Z,100.00
2023-04-15T05:25:01.000Z,100.00
2023-04-15T05:27:29.438Z,100.00
2023-04-15T05:29:56.248Z,100.00
2023-04-15T05:32:23.129Z,100.00
2023-04-15T05:34:50.007Z,100.00
2023-04-15T05:37:16.791Z,100.00
2023-04-15T05:39:43.592Z,100.00
2023-04-15T05:42:10.355Z,100.00
2023-04-15T05:44:38.565Z,100.00
2023-04-15T05:47:05.418Z,100.00
2023-04-15T05:49:32.286Z,100.00
2023-04-15T05:51:59.253Z,100.00
2023-04-15T05:54:26.009Z,100.00
2023-04-15T05:56:52.831Z,100.00
2023-04-15T05:59:19.599Z,100.00
2023-04-15T06:01:47.751Z,100.00
2023-04-15T06:04:14.705Z,100.00
2023-04-15T06:06:41.493Z,100.00
2023-04-15T06:09:08.360Z,100.00
2023-04-15T06:11:35.138Z,100.00
2023-04-15T06:14:02.050Z,100.00
2023-04-15T06:16:28.872Z,100.00
2023-04-15T06:18:57.008Z,100.00
2023-04-15T06:21:24.001Z,100.00
2023-04-15T06:23:50.846Z,100.00
2023-04-15T06:26:17.629Z,100.00
2023-04-15T06:28:44.471Z,100.00
2023-04-15T06:31:11.209Z,100.00
2023-04-15T06:33:38.014Z,100.00
2023-04-15T06:36:08.825Z,100.00
2023-04-15T06:38:35.586Z,100.00
2023-04-15T06:41:03.518Z,100.00
2023-04-15T06:43:30.452Z,100.00
2023-04-15T06:45:57.323Z,100.00
2023-04-15T06:48:24.518Z,100.00
2023-04-15T06:50:51.345Z,100.00
2023-04-15T06:53:19.521Z,100.00
2023-04-15T06:55:46.308Z,100.00
2023-04-15T06:58:13.135Z,100.00
2023-04-15T07:00:39.946Z,100.00
2023-04-15T07:03:06.783Z,100.00
2023-04-15T07:05:33.908Z,100.00
2023-04-15T07:08:00.889Z,100.00
2023-04-15T07:10:29.226Z,100.00
2023-04-15T07:12:56.568Z,100.00
2023-04-15T07:15:23.304Z,100.00
2023-04-15T07:17:50.115Z,100.00
2023-04-15T07:20:17.110Z,100.00
2023-04-15T07:22:43.912Z,100.00
2023-04-15T07:25:10.733Z,100.00
2023-04-15T07:27:38.876Z,100.00
2023-04-15T07:30:07.477Z,100.00
2023-04-15T07:32:34.397Z,100.00
2023-04-15T07:35:01.317Z,100.00
2023-04-15T07:37:28.164Z,100.00
2023-04-15T07:39:55.058Z,100.00
2023-04-15T07:42:22.173Z,100.00
2023-04-15T07:44:51.085Z,100.00
2023-04-15T07:47:17.998Z,100.00
2023-04-15T07:49:44.834Z,100.00
2023-04-15T07:52:11.659Z,100.00
2023-04-15T07:54:38.383Z,99.99
2023-04-15T07:57:05.167Z,100.00
2023-04-15T07:59:31.963Z,97.76
2023-04-15T08:02:00.391Z,94.67
2023-04-15T08:04:27.329Z,96.48
2023-04-15T08:06:54.271Z,96.75
2023-04-15T08:09:21.193Z,93.74
2023-04-15T08:11:49.607Z,90.52
2023-04-15T08:14:16.511Z,92.52
2023-04-15T08:16:43.322Z,83.27
2023-04-15T08:19:11.499Z,83.21
2023-04-15T08:21:38.266Z,84.68
2023-04-15T08:24:06.196Z,84.51
2023-04-15T08:26:32.948Z,83.31
2023-04-15T08:28:59.808Z,85.51
2023-04-15T08:31:29.404Z,86.08
2023-04-15T08:33:57.269Z,82.14
2023-04-15T08:36:25.514Z,77.77
2023-04-15T08:38:52.321Z,74.42
2023-04-15T08:41:22.545Z,75.86
2023-04-15T08:43:53.115Z,77.67
2023-04-15T08:46:21.068Z,78.31
2023-04-15T08:48:48.706Z,82.83
2023-04-15T08:51:16.171Z,81.58
2023-04-15T08:53:45.185Z,78.87
2023-04-15T08:56:15.389Z,80.27
2023-04-15T08:58:43.694Z,81.26
2023-04-15T09:01:12.527Z,85.36
2023-04-15T09:03:39.905Z,88.24
2023-04-15T09:08:49.454Z,88.04
2023-04-15T09:11:17.106Z,87.04
2023-04-15T09:13:44.817Z,88.01
2023-04-15T09:16:11.575Z,87.84
2023-04-15T09:18:39.045Z,88.39
2023-04-15T09:21:06.851Z,86.87
2023-04-15T09:23:33.795Z,85.97
2023-04-15T09:26:03.646Z,85.70
2023-04-15T09:28:31.075Z,84.89
2023-04-15T09:30:58.533Z,85.56
2023-04-15T09:33:25.800Z,88.10
2023-04-15T09:36:00.496Z,88.00
2023-04-15T09:38:27.953Z,89.13
2023-04-15T09:40:55.259Z,90.52
2023-04-15T09:43:23.738Z,91.85
2023-04-15T09:45:52.004Z,86.85
2023-04-15T09:48:21.086Z,88.14
2023-04-15T09:50:51.808Z,90.44
2023-04-15T09:53:20.143Z,89.72
2023-04-15T09:55:50.292Z,93.02
2023-04-15T09:58:21.766Z,94.92
2023-04-15T10:00:52.355Z,95.12
2023-04-15T10:03:21.253Z,96.43
2023-04-15T10:05:52.570Z,97.11
2023-04-15T10:08:23.425Z,96.59
2023-04-15T10:10:50.382Z,95.09
2023-04-15T10:13:18.587Z,94.74
2023-04-15T10:15:52.036Z,93.80
2023-04-15T10:18:21.547Z,92.42
2023-04-15T10:20:49.006Z,91.75
2023-04-15T10:23:16.286Z,89.55
2023-04-15T10:25:43.598Z,87.78
2023-04-15T10:28:11.303Z,88.37
2023-04-15T10:30:38.850Z,85.45
2023-04-15T10:33:10.261Z,85.68
2023-04-15T10:35:39.397Z,82.96
2023-04-15T10:38:36.087Z,82.87
2023-04-15T10:41:14.019Z,84.75
2023-04-15T10:43:45.861Z,84.06
2023-04-15T10:46:12.638Z,83.41
2023-04-15T10:48:47.467Z,81.68
2023-04-15T10:51:14.549Z,80.14
2023-04-15T10:53:42.429Z,78.75
2023-04-15T10:56:10.303Z,77.93
2023-04-15T10:58:42.037Z,78.85
2023-04-15T11:01:08.880Z,79.53
2023-04-15T11:03:38.687Z,76.44
2023-04-15T11:06:07.697Z,76.86
2023-04-15T11:08:54.420Z,78.28
2023-04-15T11:11:21.352Z,76.41
2023-04-15T11:13:49.177Z,77.07
2023-04-15T11:16:16.227Z,76.90
2023-04-15T11:18:53.110Z,77.25
2023-04-15T11:21:25.356Z,76.66
2023-04-15T11:23:52.255Z,75.01
2023-04-15T11:26:19.015Z,76.02
2023-04-15T11:28:46.632Z,76.55
2023-04-15T11:31:16.676Z,75.03
2023-04-15T11:33:47.714Z,73.06
2023-04-15T11:36:14.663Z,75.87
2023-04-15T11:38:47.611Z,71.42
2023-04-15T11:41:14.533Z,72.16
2023-04-15T11:43:41.394Z,72.41
2023-04-15T11:46:08.250Z,73.15
2023-04-15T11:48:36.579Z,72.40
2023-04-15T11:51:04.848Z,75.90
2023-04-15T11:53:39.509Z,77.05
2023-04-15T11:56:08.873Z,71.67
2023-04-15T11:58:37.192Z,71.70
2023-04-15T12:01:04.668Z,73.86
2023-04-15T12:03:36.859Z,73.60
2023-04-15T12:06:22.475Z,74.29
2023-04-15T12:08:56.309Z,75.24
2023-04-15T12:11:30.590Z,70.64
2023-04-15T12:13:58.074Z,67.17
2023-04-15T12:16:25.665Z,67.94
2023-04-15T12:18:53.253Z,66.93
2023-04-15T12:21:21.111Z,73.26
2023-04-15T12:23:51.835Z,71.71
2023-04-15T12:26:19.030Z,72.00
2023-04-15T12:28:47.139Z,71.94
2023-04-15T12:31:14.685Z,67.72
2023-04-15T12:33:41.825Z,67.43
2023-04-15T12:36:08.809Z,70.93
2023-04-15T12:38:35.584Z,67.76
2023-04-15T12:41:02.425Z,66.38
2023-04-15T12:43:29.269Z,65.21
2023-04-15T12:45:57.387Z,65.13
2023-04-15T12:48:24.202Z,67.00
2023-04-15T12:50:51.097Z,66.77
2023-04-15T12:53:18.206Z,69.09
2023-04-15T12:55:45.020Z,69.11
2023-04-15T12:58:11.851Z,73.51
2023-04-15T13:00:38.989Z,71.19
2023-04-15T13:03:07.494Z,76.84
2023-04-15T13:05:34.458Z,73.42
2023-04-15T13:08:01.313Z,74.77
2023-04-15T13:10:28.127Z,80.27
2023-04-15T13:12:54.942Z,82.31
2023-04-15T13:15:21.778Z,76.20
2023-04-15T13:17:48.816Z,77.55
2023-04-15T13:20:17.046Z,81.13
2023-04-15T13:22:43.809Z,78.44
2023-04-15T13:25:10.673Z,77.95
2023-04-15T13:27:37.477Z,79.50
2023-04-15T13:30:05.087Z,76.50
2023-04-15T13:32:32.074Z,76.54
2023-04-15T13:34:58.913Z,72.80
2023-04-15T13:37:28.364Z,71.36
2023-04-15T13:39:55.496Z,73.58
2023-04-15T13:42:22.841Z,74.68
2023-04-15T13:44:50.227Z,76.81
2023-04-15T13:47:17.202Z,81.15
2023-04-15T13:49:44.278Z,79.64
2023-04-15T13:52:11.409Z,84.38
2023-04-15T13:54:39.633Z,84.80
2023-04-15T13:57:06.952Z,82.71
2023-04-15T13:59:34.195Z,82.70
2023-04-15T14:02:02.178Z,86.03
2023-04-15T14:04:29.149Z,82.88
2023-04-15T14:06:56.498Z,85.59
2023-04-15T14:09:26.213Z,89.26
2023-04-15T14:11:54.708Z,84.62
2023-04-15T14:14:21.558Z,88.23
2023-04-15T14:16:48.433Z,85.92
2023-04-15T14:19:15.272Z,83.63
2023-04-15T14:21:42.087Z,82.04
2023-04-15T14:24:08.850Z,84.85
2023-04-15T14:26:35.666Z,86.51
2023-04-15T14:29:04.107Z,86.55
2023-04-15T14:31:31.064Z,90.81
2023-04-15T14:33:57.841Z,87.71
2023-04-15T14:36:24.641Z,82.76
2023-04-15T14:38:51.514Z,81.53
2023-04-15T14:41:18.247Z,84.13
2023-04-15T14:43:45.085Z,88.13
2023-04-15T14:46:13.280Z,88.58
2023-04-15T14:48:40.053Z,89.18
2023-04-15T14:51:06.913Z,84.68
2023-04-15T14:53:36.025Z,81.02
2023-04-15T14:56:03.042Z,77.38
2023-04-15T14:58:29.880Z,77.92
2023-04-15T15:00:56.661Z,77.95
2023-04-15T15:03:25.159Z,78.10
2023-04-15T15:05:52.237Z,80.38
2023-04-15T15:08:19.103Z,80.42
2023-04-15T15:10:49.452Z,82.54
2023-04-15T15:13:17.850Z,81.85
2023-04-15T15:15:45.139Z,82.15
2023-04-15T15:18:11.954Z,82.25
2023-04-15T15:20:40.423Z,80.09
2023-04-15T15:23:07.522Z,82.06
2023-04-15T15:25:34.531Z,84.08
2023-04-15T15:28:01.337Z,85.10
2023-04-15T15:30:28.477Z,83.46
2023-04-15T15:32:55.444Z,82.64
2023-04-15T15:35:22.254Z,81.72
2023-04-15T15:37:50.508Z,79.05
2023-04-15T15:40:17.579Z,77.91
2023-04-15T15:42:44.385Z,78.55
2023-04-15T15:45:11.695Z,82.53
2023-04-15T15:47:38.609Z,81.47
2023-04-15T15:50:06.539Z,82.02
2023-04-15T15:52:33.304Z,79.17
2023-04-15T15:55:01.501Z,78.50
2023-04-15T15:57:28.353Z,75.62
2023-04-15T16:00:09.867Z,76.59
2023-04-15T16:02:59.630Z,77.91
2023-04-15T16:05:25.251Z,78.25
2023-04-15T16:07:52.060Z,75.29
2023-04-15T16:10:20.162Z,72.02
2023-04-15T16:12:46.953Z,71.07
2023-04-15T16:15:13.684Z,72.04
2023-04-15T16:17:40.546Z,73.40
2023-04-15T16:20:08.410Z,74.07
2023-04-15T16:22:35.608Z,75.08
2023-04-15T16:25:02.968Z,76.51
2023-04-15T16:27:31.182Z,72.89
2023-04-15T16:29:57.910Z,71.87
2023-04-15T16:32:24.771Z,72.72
2023-04-15T16:34:52.523Z,75.06
2023-04-15T16:37:20.360Z,72.03
2023-04-15T16:39:47.407Z,71.76
2023-04-15T16:42:14.153Z,73.84
2023-04-15T16:44:42.334Z,75.29
2023-04-15T16:47:09.167Z,77.07
2023-04-15T16:49:35.892Z,76.37
2023-04-15T16:52:02.757Z,75.20
2023-04-15T16:54:29.585Z,75.82
2023-04-15T16:56:56.518Z,76.62
2023-04-15T16:59:23.503Z,77.60
2023-04-15T17:01:51.766Z,78.05
2023-04-15T17:04:18.789Z,79.65
2023-04-15T17:06:45.583Z,79.60
2023-04-15T17:09:12.400Z,81.09
2023-04-15T17:11:39.307Z,81.55
2023-04-15T17:14:07.172Z,83.59
2023-04-15T17:16:33.928Z,83.26
2023-04-15T17:19:02.139Z,85.97
2023-04-15T17:21:28.975Z,88.00
2023-04-15T17:23:55.748Z,91.02
2023-04-15T17:26:22.511Z,93.36
2023-04-15T17:28:49.478Z,96.60
2023-04-15T17:31:16.414Z,96.79
2023-04-15T17:34:00.523Z,98.10
2023-04-15T17:36:33.335Z,98.17
2023-04-15T17:39:00.121Z,100.00
2023-04-15T17:41:27.082Z,100.00
2023-04-15T17:43:53.921Z,100.00
2023-04-15T17:46:20.770Z,100.00
2023-04-15T17:48:47.633Z,100.00
2023-04-15T17:51:14.350Z,100.00
2023-04-15T17:53:42.906Z,100.00
2023-04-15T17:56:09.672Z,100.00
2023-04-15T17:58:36.438Z,100.00
2023-04-15T18:01:03.212Z,100.00
2023-04-15T18:03:30.158Z,100.00
2023-04-15T18:05:57.122Z,100.00
2023-04-15T18:08:23.906Z,100.00
2023-04-15T18:10:52.034Z,100.00
2023-04-15T18:13:21.444Z,100.00
2023-04-15T18:15:48.341Z,100.00
2023-04-15T18:18:15.129Z,100.00
2023-04-15T18:20:41.962Z,100.00
2023-04-15T18:23:08.744Z,100.00
2023-04-15T18:25:36.122Z,100.00
2023-04-15T18:28:04.304Z,100.00
2023-04-15T18:30:31.059Z,100.00
2023-04-15T18:32:57.896Z,100.00
2023-04-15T18:35:24.717Z,100.00
2023-04-15T18:37:52.287Z,100.00
2023-04-15T18:40:20.264Z,100.00
2023-04-15T18:42:47.029Z,100.00
2023-04-15T18:45:15.599Z,100.00
2023-04-15T18:47:42.531Z,100.00
2023-04-15T18:50:09.772Z,100.00
2023-04-15T18:52:36.694Z,100.00
2023-04-15T18:55:03.726Z,100.00
2023-04-15T18:57:35.757Z,100.00
2023-04-15T19:00:05.375Z,100.00
2023-04-15T19:02:33.664Z,100.00
2023-04-15T19:05:00.530Z,100.00
2023-04-15T19:07:27.338Z,100.00
2023-04-15T19:09:54.146Z,100.00
2023-04-15T19:12:20.974Z,100.00
2023-04-15T19:14:47.815Z,100.00
2023-04-15T19:17:14.845Z,100.00
2023-04-15T19:19:42.960Z,100.00
2023-04-15T19:22:09.926Z,100.00
2023-04-15T19:24:36.687Z,99.71
2023-04-15T19:27:03.516Z,100.00
2023-04-15T19:29:30.455Z,100.00
2023-04-15T19:31:57.321Z,100.00
2023-04-15T19:34:24.058Z,100.00
2023-04-15T19:36:52.261Z,100.00
2023-04-15T19:39:19.098Z,100.00
2023-04-15T19:41:45.861Z,100.00
2023-04-15T19:44:12.615Z,100.00
2023-04-15T19:46:39.695Z,100.00
2023-04-15T19:49:07.035Z,100.00
2023-04-15T19:51:34.055Z,100.00
2023-04-15T19:54:02.157Z,100.00
2023-04-15T19:56:28.952Z,100.00
2023-04-15T19:58:55.675Z,100.00
2023-04-15T20:01:22.862Z,100.00
2023-04-15T20:03:49.752Z,100.00
2023-04-15T20:06:16.592Z,100.00
2023-04-15T20:08:43.375Z,100.00
2023-04-15T20:11:12.379Z,100.00
2023-04-15T20:13:41.993Z,100.00
2023-04-15T20:16:09.029Z,100.00
2023-04-15T20:18:35.859Z,100.00
2023-04-15T20:21:02.720Z,100.00
2023-04-15T20:23:29.537Z,100.00
2023-04-15T20:25:56.260Z,100.00
2023-04-15T20:28:24.455Z,100.00
2023-04-15T20:30:51.198Z,100.00
2023-04-15T20:33:17.908Z,100.00
2023-04-15T20:35:44.691Z,100.00
2023-04-15T20:38:11.446Z,100.00
2023-04-15T20:40:39.476Z,100.00
2023-04-15T20:43:07.690Z,100.00
2023-04-15T20:45:35.909Z,100.00
2023-04-15T20:48:02.705Z,100.00
2023-04-15T20:50:29.512Z,100.00
2023-04-15T20:52:56.535Z,100.00
2023-04-15T20:55:23.430Z,100.00
2023-04-15T20:57:50.272Z,100.00
2023-04-15T21:00:17.034Z,100.00
2023-04-15T21:02:45.330Z,100.00
2023-04-15T21:05:13.300Z,100.00
2023-04-15T21:07:40.126Z,100.00
2023-04-15T21:10:07.542Z,100.00
2023-04-15T21:12:34.299Z,100.00
2023-04-15T21:15:01.121Z,100.00
2023-04-15T21:17:27.867Z,100.00
2023-04-15T21:19:55.984Z,100.00
2023-04-15T21:22:22.710Z,100.00
2023-04-15T21:24:49.522Z,100.00
2023-04-15T21:27:16.256Z,100.00
2023-04-15T21:29:43.030Z,100.00
2023-04-15T21:32:10.295Z,100.00
2023-04-15T21:34:37.250Z,100.00
2023-04-15T21:37:05.404Z,100.00
2023-04-15T21:39:32.306Z,100.00
2023-04-15T21:41:59.067Z,100.00
2023-04-15T21:44:25.925Z,100.00
2023-04-15T21:46:52.830Z,100.00
2023-04-15T21:49:19.679Z,100.00
2023-04-15T21:51:46.774Z,100.00
2023-04-15T21:54:15.333Z,100.00
2023-04-15T21:56:42.074Z,100.00
2023-04-15T21:59:08.844Z,100.00
2023-04-15T22:01:35.636Z,100.00
2023-04-15T22:04:02.560Z,100.00
2023-04-15T22:06:29.494Z,100.00
2023-04-15T22:09:11.252Z,100.00
2023-04-15T22:11:40.922Z,100.00
2023-04-15T22:14:07.656Z,100.00
2023-04-15T22:16:34.529Z,100.00
2023-04-15T22:19:01.481Z,100.00
2023-04-15T22:21:28.477Z,100.00
2023-04-15T22:24:32.544Z,100.00
2023-04-15T22:26:43.644Z,100.00
2023-04-15T22:29:10.416Z,100.00
2023-04-15T22:31:37.184Z,100.00
2023-04-15T22:34:03.941Z,100.00
2023-04-15T22:36:30.780Z,100.00
2023-04-15T22:38:57.641Z,100.00
2023-04-15T22:41:24.504Z,100.00
2023-04-15T22:43:52.584Z,100.00
2023-04-15T22:46:19.331Z,100.00
2023-04-15T22:48:46.074Z,100.00
2023-04-15T22:51:12.926Z,100.00
2023-04-15T22:53:39.688Z,100.00
2023-04-15T22:56:06.925Z,100.00
2023-04-15T22:58:33.628Z,100.00
2023-04-15T23:01:01.845Z,100.00
2023-04-15T23:03:28.786Z,100.00
2023-04-15T23:05:55.596Z,100.00
2023-04-15T23:08:22.347Z,100.00
2023-04-15T23:10:49.293Z,100.00
2023-04-15T23:13:16.103Z,100.00
2023-04-15T23:15:42.907Z,100.00
2023-04-15T23:18:11.177Z,100.00
2023-04-15T23:20:38.019Z,100.00
2023-04-15T23:23:04.731Z,100.00
2023-04-15T23:25:31.507Z,100.00
2023-04-15T23:27:58.240Z,100.00
2023-04-15T23:30:24.958Z,100.00
2023-04-15T23:32:51.692Z,100.00
2023-04-15T23:35:19.885Z,100.00
2023-04-15T23:37:46.747Z,100.00
2023-04-15T23:40:13.937Z,100.00
2023-04-15T23:42:40.778Z,100.00
2023-04-15T23:45:08.893Z,100.00
2023-04-15T23:47:35.790Z,100.00
2023-04-15T23:50:02.681Z,100.00
2023-04-15T23:52:30.796Z,100.00
2023-04-15T23:54:57.658Z,100.00
2023-04-15T23:57:24.383Z,100.00
2023-04-15T23:59:51.103Z,100.00
